sensor_id;sensor_type;location;lat;lon;timestamp;temperature;humidity
23087;DHT22;11712;51.134;4.156;2023-04-03T00:01:20;5.20;99.90
23087;DHT22;11712;51.134;4.156;2023-04-03T00:03:46;5.30;99.90
23087;DHT22;11712;51.134;4.156;2023-04-03T00:06:12;5.40;99.90
23087;DHT22;11712;51.134;4.156;2023-04-03T00:08:37;5.50;99.90
23087;DHT22;11712;51.134;4.156;2023-04-03T00:11:03;5.60;99.90
23087;DHT22;11712;51.134;4.156;2023-04-03T00:13:29;5.70;99.90
23087;DHT22;11712;51.134;4.156;2023-04-03T00:15:55;5.70;99.90
23087;DHT22;11712;51.134;4.156;2023-04-03T00:18:20;5.60;99.90
23087;DHT22;11712;51.134;4.156;2023-04-03T00:20:46;5.40;99.90
23087;DHT22;11712;51.134;4.156;2023-04-03T00:23:12;5.30;99.90
23087;DHT22;11712;51.134;4.156;2023-04-03T00:25:38;5.20;99.90
23087;DHT22;11712;51.134;4.156;2023-04-03T00:28:04;5.10;99.90
23087;DHT22;11712;51.134;4.156;2023-04-03T00:30:30;5.20;99.90
23087;DHT22;11712;51.134;4.156;2023-04-03T00:32:55;5.10;99.90
23087;DHT22;11712;51.134;4.156;2023-04-03T00:35:22;5.00;99.90
23087;DHT22;11712;51.134;4.156;2023-04-03T00:37:48;4.90;99.90
23087;DHT22;11712;51.134;4.156;2023-04-03T00:40:16;4.90;99.90
23087;DHT22;11712;51.134;4.156;2023-04-03T00:42:42;4.90;99.90
23087;DHT22;11712;51.134;4.156;2023-04-03T00:47:36;5.00;99.90
23087;DHT22;11712;51.134;4.156;2023-04-03T00:50:03;4.80;99.90
23087;DHT22;11712;51.134;4.156;2023-04-03T00:52:29;4.80;99.90
23087;DHT22;11712;51.134;4.156;2023-04-03T00:54:57;4.70;99.90
23087;DHT22;11712;51.134;4.156;2023-04-03T00:57:23;4.70;99.90
23087;DHT22;11712;51.134;4.156;2023-04-03T00:59:50;4.60;99.90
23087;DHT22;11712;51.134;4.156;2023-04-03T01:02:16;4.70;99.90
23087;DHT22;11712;51.134;4.156;2023-04-03T01:04:42;4.70;99.90
23087;DHT22;11712;51.134;4.156;2023-04-03T01:07:10;4.70;99.90
23087;DHT22;11712;51.134;4.156;2023-04-03T01:09:36;4.80;99.90
23087;DHT22;11712;51.134;4.156;2023-04-03T01:14:48;4.90;99.90
23087;DHT22;11712;51.134;4.156;2023-04-03T01:22:40;5.00;99.90
23087;DHT22;11712;51.134;4.156;2023-04-03T01:25:07;5.00;99.90
23087;DHT22;11712;51.134;4.156;2023-04-03T01:27:33;5.00;99.90
23087;DHT22;11712;51.134;4.156;2023-04-03T01:29:58;5.00;99.90
23087;DHT22;11712;51.134;4.156;2023-04-03T01:32:24;5.00;99.90
23087;DHT22;11712;51.134;4.156;2023-04-03T01:34:50;5.10;99.90
23087;DHT22;11712;51.134;4.156;2023-04-03T01:37:15;5.20;99.90
23087;DHT22;11712;51.134;4.156;2023-04-03T01:39:41;5.10;99.90
23087;DHT22;11712;51.134;4.156;2023-04-03T01:42:06;5.10;99.90
23087;DHT22;11712;51.134;4.156;2023-04-03T01:44:32;5.00;99.90
23087;DHT22;11712;51.134;4.156;2023-04-03T01:46:57;5.10;99.90
23087;DHT22;11712;51.134;4.156;2023-04-03T01:49:23;5.00;99.90
23087;DHT22;11712;51.134;4.156;2023-04-03T01:51:48;5.10;99.90
23087;DHT22;11712;51.134;4.156;2023-04-03T01:54:14;5.00;99.90
23087;DHT22;11712;51.134;4.156;2023-04-03T01:56:39;4.90;99.90
23087;DHT22;11712;51.134;4.156;2023-04-03T01:59:05;4.90;99.90
23087;DHT22;11712;51.134;4.156;2023-04-03T02:01:31;4.70;99.90
23087;DHT22;11712;51.134;4.156;2023-04-03T02:03:56;4.70;99.90
23087;DHT22;11712;51.134;4.156;2023-04-03T02:06:22;4.70;99.90
23087;DHT22;11712;51.134;4.156;2023-04-03T02:08:47;4.70;99.90
23087;DHT22;11712;51.134;4.156;2023-04-03T02:11:13;4.70;99.90
23087;DHT22;11712;51.134;4.156;2023-04-03T02:13:38;4.60;99.90
23087;DHT22;11712;51.134;4.156;2023-04-03T02:16:10;4.50;99.90
23087;DHT22;11712;51.134;4.156;2023-04-03T02:18:37;4.50;99.90
23087;DHT22;11712;51.134;4.156;2023-04-03T02:21:03;4.40;99.90
23087;DHT22;11712;51.134;4.156;2023-04-03T02:23:29;4.40;99.90
23087;DHT22;11712;51.134;4.156;2023-04-03T02:26:02;4.30;99.90
23087;DHT22;11712;51.134;4.156;2023-04-03T02:28:28;4.40;99.90
23087;DHT22;11712;51.134;4.156;2023-04-03T02:30:53;4.30;99.90
23087;DHT22;11712;51.134;4.156;2023-04-03T02:33:19;4.40;99.90
23087;DHT22;11712;51.134;4.156;2023-04-03T02:35:45;4.30;99.90
23087;DHT22;11712;51.134;4.156;2023-04-03T02:38:18;4.30;99.90
23087;DHT22;11712;51.134;4.156;2023-04-03T02:40:44;4.30;99.90
23087;DHT22;11712;51.134;4.156;2023-04-03T02:43:09;4.40;99.90
23087;DHT22;11712;51.134;4.156;2023-04-03T02:45:35;4.40;99.90
23087;DHT22;11712;51.134;4.156;2023-04-03T02:48:01;4.30;99.90
23087;DHT22;11712;51.134;4.156;2023-04-03T02:50:26;4.30;99.90
23087;DHT22;11712;51.134;4.156;2023-04-03T02:52:52;4.30;99.90
23087;DHT22;11712;51.134;4.156;2023-04-03T02:55:17;4.30;99.90
23087;DHT22;11712;51.134;4.156;2023-04-03T02:57:43;4.30;99.90
23087;DHT22;11712;51.134;4.156;2023-04-03T03:00:08;4.30;99.90
23087;DHT22;11712;51.134;4.156;2023-04-03T03:02:35;4.20;99.90
23087;DHT22;11712;51.134;4.156;2023-04-03T03:05:00;4.20;99.90
23087;DHT22;11712;51.134;4.156;2023-04-03T03:07:26;4.30;99.90
23087;DHT22;11712;51.134;4.156;2023-04-03T03:09:51;4.30;99.90
23087;DHT22;11712;51.134;4.156;2023-04-03T03:12:17;4.30;99.90
23087;DHT22;11712;51.134;4.156;2023-04-03T03:14:47;4.40;99.90
23087;DHT22;11712;51.134;4.156;2023-04-03T03:17:13;4.40;99.90
23087;DHT22;11712;51.134;4.156;2023-04-03T03:19:38;4.40;99.90
23087;DHT22;11712;51.134;4.156;2023-04-03T03:22:04;4.40;99.90
23087;DHT22;11712;51.134;4.156;2023-04-03T03:24:29;4.40;99.90
23087;DHT22;11712;51.134;4.156;2023-04-03T03:26:55;4.40;99.90
23087;DHT22;11712;51.134;4.156;2023-04-03T03:29:21;4.40;99.90
23087;DHT22;11712;51.134;4.156;2023-04-03T03:31:46;4.40;99.90
23087;DHT22;11712;51.134;4.156;2023-04-03T03:34:12;4.40;99.90
23087;DHT22;11712;51.134;4.156;2023-04-03T03:36:38;4.60;99.90
23087;DHT22;11712;51.134;4.156;2023-04-03T03:39:04;4.60;99.90
23087;DHT22;11712;51.134;4.156;2023-04-03T03:41:29;4.70;99.90
23087;DHT22;11712;51.134;4.156;2023-04-03T03:43:55;4.70;99.90
23087;DHT22;11712;51.134;4.156;2023-04-03T03:46:20;4.70;99.90
23087;DHT22;11712;51.134;4.156;2023-04-03T03:48:46;4.60;99.90
23087;DHT22;11712;51.134;4.156;2023-04-03T03:51:11;4.60;99.90
23087;DHT22;11712;51.134;4.156;2023-04-03T03:53:37;4.50;99.90
23087;DHT22;11712;51.134;4.156;2023-04-03T03:56:03;4.60;99.90
23087;DHT22;11712;51.134;4.156;2023-04-03T03:58:29;4.60;99.90
23087;DHT22;11712;51.134;4.156;2023-04-03T04:00:54;4.60;99.90
23087;DHT22;11712;51.134;4.156;2023-04-03T04:03:20;4.60;99.90
23087;DHT22;11712;51.134;4.156;2023-04-03T04:05:46;4.60;99.90
23087;DHT22;11712;51.134;4.156;2023-04-03T04:08:11;4.50;99.90
23087;DHT22;11712;51.134;4.156;2023-04-03T04:10:37;4.40;99.90
23087;DHT22;11712;51.134;4.156;2023-04-03T04:13:03;4.40;99.90
23087;DHT22;11712;51.134;4.156;2023-04-03T04:15:29;4.40;99.90
23087;DHT22;11712;51.134;4.156;2023-04-03T04:17:54;4.40;99.90
23087;DHT22;11712;51.134;4.156;2023-04-03T04:20:20;4.40;99.90
23087;DHT22;11712;51.134;4.156;2023-04-03T04:22:45;4.30;99.90
23087;DHT22;11712;51.134;4.156;2023-04-03T04:25:11;4.20;99.90
23087;DHT22;11712;51.134;4.156;2023-04-03T04:27:36;4.20;99.90
23087;DHT22;11712;51.134;4.156;2023-04-03T04:30:03;4.20;99.90
23087;DHT22;11712;51.134;4.156;2023-04-03T04:32:28;4.30;99.90
23087;DHT22;11712;51.134;4.156;2023-04-03T04:34:54;4.20;99.90
23087;DHT22;11712;51.134;4.156;2023-04-03T04:37:20;4.20;99.90
23087;DHT22;11712;51.134;4.156;2023-04-03T04:39:45;4.10;99.90
23087;DHT22;11712;51.134;4.156;2023-04-03T04:42:11;4.20;99.90
23087;DHT22;11712;51.134;4.156;2023-04-03T04:44:38;4.50;99.90
23087;DHT22;11712;51.134;4.156;2023-04-03T04:47:04;4.40;99.90
23087;DHT22;11712;51.134;4.156;2023-04-03T04:49:29;4.30;99.90
23087;DHT22;11712;51.134;4.156;2023-04-03T04:51:55;4.20;99.90
23087;DHT22;11712;51.134;4.156;2023-04-03T04:54:20;4.20;99.90
23087;DHT22;11712;51.134;4.156;2023-04-03T04:56:46;4.30;99.90
23087;DHT22;11712;51.134;4.156;2023-04-03T04:59:12;4.10;99.90
23087;DHT22;11712;51.134;4.156;2023-04-03T05:01:37;4.10;99.90
23087;DHT22;11712;51.134;4.156;2023-04-03T05:04:03;4.10;99.90
23087;DHT22;11712;51.134;4.156;2023-04-03T05:06:29;4.20;99.90
23087;DHT22;11712;51.134;4.156;2023-04-03T05:08:57;4.30;99.90
23087;DHT22;11712;51.134;4.156;2023-04-03T05:11:23;4.30;99.90
23087;DHT22;11712;51.134;4.156;2023-04-03T05:13:48;4.30;99.90
23087;DHT22;11712;51.134;4.156;2023-04-03T05:16:14;4.30;99.90
23087;DHT22;11712;51.134;4.156;2023-04-03T05:18:39;4.30;99.90
23087;DHT22;11712;51.134;4.156;2023-04-03T05:21:05;4.10;99.90
23087;DHT22;11712;51.134;4.156;2023-04-03T05:23:30;3.90;99.90
23087;DHT22;11712;51.134;4.156;2023-04-03T05:25:56;4.00;99.90
23087;DHT22;11712;51.134;4.156;2023-04-03T05:28:21;3.90;99.90
23087;DHT22;11712;51.134;4.156;2023-04-03T05:30:54;3.90;99.90
23087;DHT22;11712;51.134;4.156;2023-04-03T05:33:20;3.90;99.90
23087;DHT22;11712;51.134;4.156;2023-04-03T05:35:46;3.90;99.90
23087;DHT22;11712;51.134;4.156;2023-04-03T05:38:11;3.90;99.90
23087;DHT22;11712;51.134;4.156;2023-04-03T05:40:37;3.90;99.90
23087;DHT22;11712;51.134;4.156;2023-04-03T05:43:02;3.80;99.90
23087;DHT22;11712;51.134;4.156;2023-04-03T05:45:28;3.80;99.90
23087;DHT22;11712;51.134;4.156;2023-04-03T05:47:54;3.80;99.90
23087;DHT22;11712;51.134;4.156;2023-04-03T05:50:19;3.80;99.90
23087;DHT22;11712;51.134;4.156;2023-04-03T05:52:45;3.80;99.90
23087;DHT22;11712;51.134;4.156;2023-04-03T05:55:12;3.80;99.90
23087;DHT22;11712;51.134;4.156;2023-04-03T05:57:37;3.90;99.90
23087;DHT22;11712;51.134;4.156;2023-04-03T06:00:04;3.90;99.90
23087;DHT22;11712;51.134;4.156;2023-04-03T06:02:31;4.00;99.90
23087;DHT22;11712;51.134;4.156;2023-04-03T06:04:56;4.00;99.90
23087;DHT22;11712;51.134;4.156;2023-04-03T06:07:22;4.10;99.90
23087;DHT22;11712;51.134;4.156;2023-04-03T06:09:52;4.10;99.90
23087;DHT22;11712;51.134;4.156;2023-04-03T06:12:17;4.20;99.90
23087;DHT22;11712;51.134;4.156;2023-04-03T06:14:43;4.20;99.90
23087;DHT22;11712;51.134;4.156;2023-04-03T06:17:08;4.30;99.90
23087;DHT22;11712;51.134;4.156;2023-04-03T06:19:34;4.30;99.90
23087;DHT22;11712;51.134;4.156;2023-04-03T06:22:00;4.20;99.90
23087;DHT22;11712;51.134;4.156;2023-04-03T06:24:25;4.30;99.90
23087;DHT22;11712;51.134;4.156;2023-04-03T06:26:51;4.20;99.90
23087;DHT22;11712;51.134;4.156;2023-04-03T06:29:18;4.20;99.90
23087;DHT22;11712;51.134;4.156;2023-04-03T06:31:44;4.30;99.90
23087;DHT22;11712;51.134;4.156;2023-04-03T06:34:09;4.30;99.90
23087;DHT22;11712;51.134;4.156;2023-04-03T06:36:36;4.40;99.90
23087;DHT22;11712;51.134;4.156;2023-04-03T06:39:02;4.50;99.90
23087;DHT22;11712;51.134;4.156;2023-04-03T06:41:28;4.50;99.90
23087;DHT22;11712;51.134;4.156;2023-04-03T06:43:54;4.60;99.90
23087;DHT22;11712;51.134;4.156;2023-04-03T06:46:21;4.70;99.90
23087;DHT22;11712;51.134;4.156;2023-04-03T06:48:47;4.80;99.90
23087;DHT22;11712;51.134;4.156;2023-04-03T06:51:23;4.80;99.90
23087;DHT22;11712;51.134;4.156;2023-04-03T06:53:50;4.80;99.90
23087;DHT22;11712;51.134;4.156;2023-04-03T06:56:16;4.70;99.90
23087;DHT22;11712;51.134;4.156;2023-04-03T06:58:42;4.70;99.90
23087;DHT22;11712;51.134;4.156;2023-04-03T07:01:08;4.70;99.90
23087;DHT22;11712;51.134;4.156;2023-04-03T07:03:35;4.70;99.90
23087;DHT22;11712;51.134;4.156;2023-04-03T07:06:01;4.80;99.90
23087;DHT22;11712;51.134;4.156;2023-04-03T07:08:26;4.80;99.90
23087;DHT22;11712;51.134;4.156;2023-04-03T07:10:52;4.80;99.90
23087;DHT22;11712;51.134;4.156;2023-04-03T07:13:17;4.90;99.90
23087;DHT22;11712;51.134;4.156;2023-04-03T07:15:43;4.90;99.90
23087;DHT22;11712;51.134;4.156;2023-04-03T07:18:09;5.00;99.90
23087;DHT22;11712;51.134;4.156;2023-04-03T07:20:34;5.00;99.90
23087;DHT22;11712;51.134;4.156;2023-04-03T07:23:00;5.10;99.90
23087;DHT22;11712;51.134;4.156;2023-04-03T07:25:27;5.20;99.90
23087;DHT22;11712;51.134;4.156;2023-04-03T07:27:53;5.20;99.90
23087;DHT22;11712;51.134;4.156;2023-04-03T07:30:20;5.60;99.90
23087;DHT22;11712;51.134;4.156;2023-04-03T07:32:46;5.50;99.90
23087;DHT22;11712;51.134;4.156;2023-04-03T07:35:11;5.40;99.90
23087;DHT22;11712;51.134;4.156;2023-04-03T07:37:37;5.40;99.90
23087;DHT22;11712;51.134;4.156;2023-04-03T07:40:03;5.30;99.90
23087;DHT22;11712;51.134;4.156;2023-04-03T07:42:29;5.30;99.90
23087;DHT22;11712;51.134;4.156;2023-04-03T07:44:55;5.50;99.90
23087;DHT22;11712;51.134;4.156;2023-04-03T07:47:20;5.60;99.90
23087;DHT22;11712;51.134;4.156;2023-04-03T07:49:46;5.60;99.90
23087;DHT22;11712;51.134;4.156;2023-04-03T07:52:12;5.60;99.90
23087;DHT22;11712;51.134;4.156;2023-04-03T07:54:39;5.70;99.90
23087;DHT22;11712;51.134;4.156;2023-04-03T07:57:05;5.80;99.90
23087;DHT22;11712;51.134;4.156;2023-04-03T07:59:31;5.90;99.90
23087;DHT22;11712;51.134;4.156;2023-04-03T08:01:57;5.90;99.90
23087;DHT22;11712;51.134;4.156;2023-04-03T08:04:23;6.00;99.90
23087;DHT22;11712;51.134;4.156;2023-04-03T08:06:48;6.10;99.90
23087;DHT22;11712;51.134;4.156;2023-04-03T08:09:14;6.10;99.90
23087;DHT22;11712;51.134;4.156;2023-04-03T08:11:40;6.20;99.90
23087;DHT22;11712;51.134;4.156;2023-04-03T08:14:06;6.20;99.90
23087;DHT22;11712;51.134;4.156;2023-04-03T08:16:31;6.30;99.90
23087;DHT22;11712;51.134;4.156;2023-04-03T08:18:57;6.30;99.90
23087;DHT22;11712;51.134;4.156;2023-04-03T08:21:22;6.30;99.90
23087;DHT22;11712;51.134;4.156;2023-04-03T08:23:48;6.20;99.90
23087;DHT22;11712;51.134;4.156;2023-04-03T08:26:18;6.30;99.90
23087;DHT22;11712;51.134;4.156;2023-04-03T08:28:43;6.40;99.90
23087;DHT22;11712;51.134;4.156;2023-04-03T08:31:14;6.40;99.90
23087;DHT22;11712;51.134;4.156;2023-04-03T08:33:40;6.40;99.90
23087;DHT22;11712;51.134;4.156;2023-04-03T08:36:06;6.40;99.90
23087;DHT22;11712;51.134;4.156;2023-04-03T08:38:33;6.50;99.90
23087;DHT22;11712;51.134;4.156;2023-04-03T08:41:00;6.60;99.90
23087;DHT22;11712;51.134;4.156;2023-04-03T08:43:34;6.60;99.90
23087;DHT22;11712;51.134;4.156;2023-04-03T08:46:01;6.70;99.90
23087;DHT22;11712;51.134;4.156;2023-04-03T08:48:35;6.70;99.90
23087;DHT22;11712;51.134;4.156;2023-04-03T08:51:09;6.80;99.90
23087;DHT22;11712;51.134;4.156;2023-04-03T08:53:39;6.80;99.90
23087;DHT22;11712;51.134;4.156;2023-04-03T08:56:06;7.00;99.90
23087;DHT22;11712;51.134;4.156;2023-04-03T08:58:40;6.90;99.90
23087;DHT22;11712;51.134;4.156;2023-04-03T09:01:14;6.90;99.90
23087;DHT22;11712;51.134;4.156;2023-04-03T09:03:42;7.10;99.90
23087;DHT22;11712;51.134;4.156;2023-04-03T09:06:20;7.30;99.90
23087;DHT22;11712;51.134;4.156;2023-04-03T09:21:44;7.70;99.90
23087;DHT22;11712;51.134;4.156;2023-04-03T09:24:10;7.80;99.90
23087;DHT22;11712;51.134;4.156;2023-04-03T09:26:53;7.60;99.90
23087;DHT22;11712;51.134;4.156;2023-04-03T09:29:22;7.60;99.90
23087;DHT22;11712;51.134;4.156;2023-04-03T09:31:49;7.70;99.90
23087;DHT22;11712;51.134;4.156;2023-04-03T09:34:18;7.80;99.90
23087;DHT22;11712;51.134;4.156;2023-04-03T09:36:48;7.80;99.90
23087;DHT22;11712;51.134;4.156;2023-04-03T09:39:18;7.50;99.90
23087;DHT22;11712;51.134;4.156;2023-04-03T09:41:54;7.60;99.90
23087;DHT22;11712;51.134;4.156;2023-04-03T09:44:24;7.60;99.90
23087;DHT22;11712;51.134;4.156;2023-04-03T09:46:50;7.70;99.90
23087;DHT22;11712;51.134;4.156;2023-04-03T09:49:16;7.50;99.90
23087;DHT22;11712;51.134;4.156;2023-04-03T09:51:42;7.70;99.90
23087;DHT22;11712;51.134;4.156;2023-04-03T09:56:53;7.60;99.90
23087;DHT22;11712;51.134;4.156;2023-04-03T09:59:20;7.70;99.90
23087;DHT22;11712;51.134;4.156;2023-04-03T10:04:41;8.00;99.90
23087;DHT22;11712;51.134;4.156;2023-04-03T10:07:27;8.10;99.90
23087;DHT22;11712;51.134;4.156;2023-04-03T10:09:57;8.10;99.90
23087;DHT22;11712;51.134;4.156;2023-04-03T10:12:23;8.10;99.90
23087;DHT22;11712;51.134;4.156;2023-04-03T10:15:00;8.00;99.90
23087;DHT22;11712;51.134;4.156;2023-04-03T10:25:05;8.30;99.90
23087;DHT22;11712;51.134;4.156;2023-04-03T10:33:02;8.30;99.90
23087;DHT22;11712;51.134;4.156;2023-04-03T10:35:53;8.40;99.90
23087;DHT22;11712;51.134;4.156;2023-04-03T10:40:55;8.80;99.90
23087;DHT22;11712;51.134;4.156;2023-04-03T10:48:44;9.00;99.90
23087;DHT22;11712;51.134;4.156;2023-04-03T10:51:16;9.20;99.90
23087;DHT22;11712;51.134;4.156;2023-04-03T10:56:15;9.20;99.90
23087;DHT22;11712;51.134;4.156;2023-04-03T10:58:44;9.00;99.90
23087;DHT22;11712;51.134;4.156;2023-04-03T11:01:15;9.20;99.90
23087;DHT22;11712;51.134;4.156;2023-04-03T11:03:45;9.20;99.90
23087;DHT22;11712;51.134;4.156;2023-04-03T11:06:13;9.40;99.90
23087;DHT22;11712;51.134;4.156;2023-04-03T11:11:16;9.60;99.90
23087;DHT22;11712;51.134;4.156;2023-04-03T11:13:48;9.50;99.90
23087;DHT22;11712;51.134;4.156;2023-04-03T11:16:16;9.60;99.90
23087;DHT22;11712;51.134;4.156;2023-04-03T11:18:45;9.60;99.90
23087;DHT22;11712;51.134;4.156;2023-04-03T11:21:19;9.50;99.90
23087;DHT22;11712;51.134;4.156;2023-04-03T11:23:47;9.50;99.90
23087;DHT22;11712;51.134;4.156;2023-04-03T11:26:17;9.70;99.90
23087;DHT22;11712;51.134;4.156;2023-04-03T11:28:43;9.70;99.90
23087;DHT22;11712;51.134;4.156;2023-04-03T11:31:22;9.70;99.90
23087;DHT22;11712;51.134;4.156;2023-04-03T11:34:08;9.60;99.90
23087;DHT22;11712;51.134;4.156;2023-04-03T11:36:44;9.70;99.90
23087;DHT22;11712;51.134;4.156;2023-04-03T11:41:45;9.90;99.90
23087;DHT22;11712;51.134;4.156;2023-04-03T11:46:57;9.60;99.90
23087;DHT22;11712;51.134;4.156;2023-04-03T11:52:09;10.00;99.90
23087;DHT22;11712;51.134;4.156;2023-04-03T11:57:17;10.10;99.90
23087;DHT22;11712;51.134;4.156;2023-04-03T11:59:46;9.90;99.90
23087;DHT22;11712;51.134;4.156;2023-04-03T12:02:45;10.10;99.90
23087;DHT22;11712;51.134;4.156;2023-04-03T12:10:32;10.40;99.90
23087;DHT22;11712;51.134;4.156;2023-04-03T12:12:58;10.10;99.90
23087;DHT22;11712;51.134;4.156;2023-04-03T12:15:26;10.10;99.90
23087;DHT22;11712;51.134;4.156;2023-04-03T12:20:57;10.40;99.90
23087;DHT22;11712;51.134;4.156;2023-04-03T12:23:24;10.30;99.90
23087;DHT22;11712;51.134;4.156;2023-04-03T12:25:51;10.00;99.90
23087;DHT22;11712;51.134;4.156;2023-04-03T12:28:17;9.80;99.90
23087;DHT22;11712;51.134;4.156;2023-04-03T12:30:43;9.90;99.90
23087;DHT22;11712;51.134;4.156;2023-04-03T12:33:20;9.90;99.90
23087;DHT22;11712;51.134;4.156;2023-04-03T12:35:57;9.70;99.90
23087;DHT22;11712;51.134;4.156;2023-04-03T12:41:11;10.00;99.90
23087;DHT22;11712;51.134;4.156;2023-04-03T12:46:24;10.10;99.90
23087;DHT22;11712;51.134;4.156;2023-04-03T12:48:52;10.40;99.90
23087;DHT22;11712;51.134;4.156;2023-04-03T12:53:47;10.70;99.90
23087;DHT22;11712;51.134;4.156;2023-04-03T12:56:28;10.60;99.90
23087;DHT22;11712;51.134;4.156;2023-04-03T12:58:55;10.50;99.60
23087;DHT22;11712;51.134;4.156;2023-04-03T13:01:25;10.40;98.90
23087;DHT22;11712;51.134;4.156;2023-04-03T13:03:57;10.20;99.90
23087;DHT22;11712;51.134;4.156;2023-04-03T13:06:24;10.40;99.90
23087;DHT22;11712;51.134;4.156;2023-04-03T13:08:52;10.30;98.20
23087;DHT22;11712;51.134;4.156;2023-04-03T13:11:18;10.40;99.50
23087;DHT22;11712;51.134;4.156;2023-04-03T13:13:55;10.60;99.90
23087;DHT22;11712;51.134;4.156;2023-04-03T13:16:21;10.60;98.40
23087;DHT22;11712;51.134;4.156;2023-04-03T13:18:50;10.70;99.20
23087;DHT22;11712;51.134;4.156;2023-04-03T13:21:21;10.50;95.80
23087;DHT22;11712;51.134;4.156;2023-04-03T13:23:49;10.30;96.70
23087;DHT22;11712;51.134;4.156;2023-04-03T13:26:16;10.50;99.40
23087;DHT22;11712;51.134;4.156;2023-04-03T13:28:42;10.60;99.10
23087;DHT22;11712;51.134;4.156;2023-04-03T13:31:30;10.70;99.90
23087;DHT22;11712;51.134;4.156;2023-04-03T13:33:56;10.70;99.00
23087;DHT22;11712;51.134;4.156;2023-04-03T13:36:23;10.80;98.20
23087;DHT22;11712;51.134;4.156;2023-04-03T13:39:02;10.50;96.70
23087;DHT22;11712;51.134;4.156;2023-04-03T13:41:30;10.70;98.70
23087;DHT22;11712;51.134;4.156;2023-04-03T13:43:56;10.80;95.90
23087;DHT22;11712;51.134;4.156;2023-04-03T13:46:24;10.80;97.50
23087;DHT22;11712;51.134;4.156;2023-04-03T13:48:50;10.80;97.70
23087;DHT22;11712;51.134;4.156;2023-04-03T13:51:24;10.80;98.10
23087;DHT22;11712;51.134;4.156;2023-04-03T13:53:57;10.80;99.50
23087;DHT22;11712;51.134;4.156;2023-04-03T14:01:21;11.10;96.70
23087;DHT22;11712;51.134;4.156;2023-04-03T14:04:00;11.10;98.80
23087;DHT22;11712;51.134;4.156;2023-04-03T14:06:26;11.10;97.70
23087;DHT22;11712;51.134;4.156;2023-04-03T14:08:52;11.20;99.90
23087;DHT22;11712;51.134;4.156;2023-04-03T14:11:19;11.20;98.20
23087;DHT22;11712;51.134;4.156;2023-04-03T14:13:46;11.00;97.70
23087;DHT22;11712;51.134;4.156;2023-04-03T14:16:13;10.80;97.80
23087;DHT22;11712;51.134;4.156;2023-04-03T14:18:40;10.80;99.40
23087;DHT22;11712;51.134;4.156;2023-04-03T14:21:05;10.70;98.90
23087;DHT22;11712;51.134;4.156;2023-04-03T14:23:31;10.60;98.40
23087;DHT22;11712;51.134;4.156;2023-04-03T14:25:58;10.70;99.80
23087;DHT22;11712;51.134;4.156;2023-04-03T14:28:25;11.00;99.70
23087;DHT22;11712;51.134;4.156;2023-04-03T14:30:51;10.80;95.30
23087;DHT22;11712;51.134;4.156;2023-04-03T14:33:19;10.70;97.10
23087;DHT22;11712;51.134;4.156;2023-04-03T14:35:45;10.90;96.90
23087;DHT22;11712;51.134;4.156;2023-04-03T14:38:21;10.90;94.40
23087;DHT22;11712;51.134;4.156;2023-04-03T14:40:47;10.90;96.80
23087;DHT22;11712;51.134;4.156;2023-04-03T14:43:13;10.90;95.50
23087;DHT22;11712;51.134;4.156;2023-04-03T14:45:38;11.10;96.20
23087;DHT22;11712;51.134;4.156;2023-04-03T14:48:04;11.40;97.10
23087;DHT22;11712;51.134;4.156;2023-04-03T14:50:32;11.50;95.60
23087;DHT22;11712;51.134;4.156;2023-04-03T14:52:58;11.50;97.00
23087;DHT22;11712;51.134;4.156;2023-04-03T14:55:24;11.50;96.40
23087;DHT22;11712;51.134;4.156;2023-04-03T14:57:50;11.60;95.60
23087;DHT22;11712;51.134;4.156;2023-04-03T15:00:17;11.70;95.20
23087;DHT22;11712;51.134;4.156;2023-04-03T15:02:43;11.60;94.60
23087;DHT22;11712;51.134;4.156;2023-04-03T15:05:09;11.60;94.70
23087;DHT22;11712;51.134;4.156;2023-04-03T15:07:39;11.80;93.80
23087;DHT22;11712;51.134;4.156;2023-04-03T15:10:22;12.10;93.20
23087;DHT22;11712;51.134;4.156;2023-04-03T15:12:49;12.30;90.80
23087;DHT22;11712;51.134;4.156;2023-04-03T15:15:15;12.10;91.10
23087;DHT22;11712;51.134;4.156;2023-04-03T15:17:41;12.10;93.10
23087;DHT22;11712;51.134;4.156;2023-04-03T15:20:26;12.50;92.20
23087;DHT22;11712;51.134;4.156;2023-04-03T15:22:53;12.80;92.50
23087;DHT22;11712;51.134;4.156;2023-04-03T15:25:18;12.70;92.40
23087;DHT22;11712;51.134;4.156;2023-04-03T15:27:44;12.40;90.50
23087;DHT22;11712;51.134;4.156;2023-04-03T15:30:14;12.30;90.60
23087;DHT22;11712;51.134;4.156;2023-04-03T15:32:40;12.30;91.40
23087;DHT22;11712;51.134;4.156;2023-04-03T15:35:06;12.40;90.60
23087;DHT22;11712;51.134;4.156;2023-04-03T15:37:32;12.30;92.70
23087;DHT22;11712;51.134;4.156;2023-04-03T15:39:57;12.70;91.10
23087;DHT22;11712;51.134;4.156;2023-04-03T15:42:23;12.40;91.40
23087;DHT22;11712;51.134;4.156;2023-04-03T15:44:48;12.30;90.50
23087;DHT22;11712;51.134;4.156;2023-04-03T15:47:14;12.00;91.20
23087;DHT22;11712;51.134;4.156;2023-04-03T15:49:40;12.00;91.70
23087;DHT22;11712;51.134;4.156;2023-04-03T15:52:06;12.10;93.00
23087;DHT22;11712;51.134;4.156;2023-04-03T15:54:31;12.20;91.10
23087;DHT22;11712;51.134;4.156;2023-04-03T15:56:57;12.10;89.10
23087;DHT22;11712;51.134;4.156;2023-04-03T15:59:22;11.90;89.70
23087;DHT22;11712;51.134;4.156;2023-04-03T16:01:48;11.90;90.40
23087;DHT22;11712;51.134;4.156;2023-04-03T16:04:15;12.20;90.50
23087;DHT22;11712;51.134;4.156;2023-04-03T16:06:41;12.50;89.60
23087;DHT22;11712;51.134;4.156;2023-04-03T16:09:06;12.30;88.90
23087;DHT22;11712;51.134;4.156;2023-04-03T16:11:33;12.20;90.00
23087;DHT22;11712;51.134;4.156;2023-04-03T16:14:00;12.20;90.00
23087;DHT22;11712;51.134;4.156;2023-04-03T16:16:26;12.20;92.20
23087;DHT22;11712;51.134;4.156;2023-04-03T16:18:53;12.00;89.60
23087;DHT22;11712;51.134;4.156;2023-04-03T16:21:18;12.20;89.80
23087;DHT22;11712;51.134;4.156;2023-04-03T16:23:44;12.30;91.00
23087;DHT22;11712;51.134;4.156;2023-04-03T16:26:10;12.20;91.00
23087;DHT22;11712;51.134;4.156;2023-04-03T16:28:35;12.00;92.00
23087;DHT22;11712;51.134;4.156;2023-04-03T16:31:01;12.00;92.90
23087;DHT22;11712;51.134;4.156;2023-04-03T16:33:27;12.30;92.90
23087;DHT22;11712;51.134;4.156;2023-04-03T16:35:53;12.30;93.40
23087;DHT22;11712;51.134;4.156;2023-04-03T16:38:19;12.20;92.80
23087;DHT22;11712;51.134;4.156;2023-04-03T16:40:45;12.10;92.30
23087;DHT22;11712;51.134;4.156;2023-04-03T16:43:11;11.90;92.70
23087;DHT22;11712;51.134;4.156;2023-04-03T16:45:36;11.80;91.60
23087;DHT22;11712;51.134;4.156;2023-04-03T16:48:02;11.90;93.40
23087;DHT22;11712;51.134;4.156;2023-04-03T16:50:27;11.80;90.80
23087;DHT22;11712;51.134;4.156;2023-04-03T16:52:53;11.50;91.70
23087;DHT22;11712;51.134;4.156;2023-04-03T16:55:19;11.60;92.20
23087;DHT22;11712;51.134;4.156;2023-04-03T16:57:46;11.60;92.40
23087;DHT22;11712;51.134;4.156;2023-04-03T17:00:11;11.50;92.40
23087;DHT22;11712;51.134;4.156;2023-04-03T17:02:38;11.40;92.90
23087;DHT22;11712;51.134;4.156;2023-04-03T17:05:04;11.40;93.40
23087;DHT22;11712;51.134;4.156;2023-04-03T17:07:30;11.40;93.50
23087;DHT22;11712;51.134;4.156;2023-04-03T17:09:55;11.20;94.20